Time;durP1;ratioP1;P1;durP2;ratioP2;P2;SDS_P1;SDS_P2;PMS_P1;PMS_P2;Temp;Humidity;BMP_temperature;BMP_pressure;BME280_temperature;BME280_humidity;BME280_pressure;Samples;Min_cycle;Max_cycle;Signal;HPM_P1;HPM_P2
2021/03/01 00:00:57;;;;;;;13.40;7.87;;;-2.30;99.90;;;;;;2097377;28;20188;-60
2021/03/01 00:01:58;;;;;;;12.03;6.73;;;-2.30;99.90;;;;;;2098268;28;20188;-60
2021/03/01 00:02:59;;;;;;;11.82;7.07;;;-2.30;99.90;;;;;;2098038;28;20429;-60
2021/03/01 00:04:00;;;;;;;12.20;7.40;;;-2.30;99.90;;;;;;2098217;28;20211;-60
2021/03/01 00:05:00;;;;;;;11.17;7.23;;;-2.30;99.90;;;;;;2097838;28;20203;-60
2021/03/01 00:06:02;;;;;;;12.60;7.40;;;-2.30;99.90;;;;;;2098102;28;20858;-60
2021/03/01 00:07:03;;;;;;;13.20;7.25;;;-2.30;99.90;;;;;;2097983;28;20650;-60
2021/03/01 00:08:04;;;;;;;12.03;7.17;;;-2.30;99.90;;;;;;2098220;28;20256;-60
2021/03/01 00:09:05;;;;;;;12.18;7.05;;;-2.40;99.90;;;;;;2098222;28;20678;-60
2021/03/01 00:10:07;;;;;;;12.50;7.20;;;-2.50;99.90;;;;;;2098099;28;20542;-60
2021/03/01 00:11:08;;;;;;;13.10;7.30;;;-2.50;99.90;;;;;;2097418;28;20183;-58
2021/03/01 00:12:10;;;;;;;10.23;6.57;;;-2.50;99.90;;;;;;2098273;28;20258;-60
2021/03/01 00:13:11;;;;;;;12.18;7.10;;;-2.50;99.90;;;;;;2097941;28;20172;-61
2021/03/01 00:14:12;;;;;;;14.00;7.23;;;-2.50;99.90;;;;;;2098241;28;20194;-60
2021/03/01 00:15:16;;;;;;;11.77;6.90;;;-2.50;99.90;;;;;;2097930;28;20176;-60
2021/03/01 00:16:16;;;;;;;11.27;7.00;;;-2.50;99.90;;;;;;2098128;28;20321;-60
2021/03/01 00:17:17;;;;;;;13.30;7.70;;;-2.50;99.90;;;;;;2098043;28;20188;-59
2021/03/01 00:18:18;;;;;;;12.43;6.90;;;-2.60;99.90;;;;;;2098126;28;20192;-57
2021/03/01 00:19:19;;;;;;;12.88;6.68;;;-2.60;99.90;;;;;;2097996;28;20194;-59
2021/03/01 00:20:20;;;;;;;12.90;6.90;;;-2.60;99.90;;;;;;2097963;28;20203;-60
2021/03/01 00:21:20;;;;;;;9.87;5.83;;;-2.60;99.90;;;;;;2097202;28;20188;-60
2021/03/01 00:22:21;;;;;;;12.40;6.77;;;-2.60;99.90;;;;;;2098103;28;20261;-60
2021/03/01 00:23:22;;;;;;;12.90;7.40;;;-2.60;99.90;;;;;;2097979;28;20180;-60
2021/03/01 00:24:22;;;;;;;12.77;7.40;;;-2.60;99.90;;;;;;2097840;28;20190;-61
2021/03/01 00:25:23;;;;;;;14.23;7.40;;;-2.70;99.90;;;;;;2097840;28;20179;-60
2021/03/01 00:26:24;;;;;;;13.20;7.70;;;-2.60;99.90;;;;;;2097795;28;20214;-63
2021/03/01 00:27:25;;;;;;;15.90;7.37;;;-2.70;99.90;;;;;;2097898;28;20179;-60
2021/03/01 00:28:25;;;;;;;11.03;6.43;;;-2.70;99.90;;;;;;2097900;28;20730;-60
2021/03/01 00:29:27;;;;;;;13.70;7.40;;;-2.70;99.90;;;;;;2097896;28;20213;-60
2021/03/01 00:30:28;;;;;;;12.82;7.57;;;-2.70;99.90;;;;;;2097776;28;20195;-60
2021/03/01 00:31:28;;;;;;;13.77;7.72;;;-2.70;99.90;;;;;;2097386;28;20180;-60
2021/03/01 00:32:29;;;;;;;13.63;6.73;;;-2.70;99.90;;;;;;2097610;28;20601;-59
2021/03/01 00:33:30;;;;;;;13.33;7.50;;;-2.70;99.90;;;;;;2097882;28;20213;-60
2021/03/01 00:34:30;;;;;;;12.47;7.03;;;-2.70;99.90;;;;;;2097656;28;20191;-60
2021/03/01 00:35:31;;;;;;;13.57;7.07;;;-2.70;99.90;;;;;;2097837;28;20254;-60
2021/03/01 00:36:32;;;;;;;12.70;7.33;;;-2.70;99.90;;;;;;2097819;28;20263;-60
2021/03/01 00:37:33;;;;;;;13.23;7.33;;;-2.70;99.90;;;;;;2097715;28;20429;-60
2021/03/01 00:38:34;;;;;;;15.90;7.87;;;-2.70;99.90;;;;;;2097874;28;20827;-59
2021/03/01 00:39:34;;;;;;;11.97;7.50;;;-2.70;99.90;;;;;;2097547;28;20262;-60
2021/03/01 00:40:35;;;;;;;10.40;6.77;;;-2.70;99.90;;;;;;2097565;28;20179;-60
2021/03/01 00:41:36;;;;;;;14.55;7.63;;;-2.70;99.90;;;;;;2097247;28;20171;-60
2021/03/01 00:42:37;;;;;;;11.03;6.77;;;-2.80;99.90;;;;;;2097326;28;20185;-61
2021/03/01 00:43:37;;;;;;;12.07;6.47;;;-2.80;99.90;;;;;;2097643;28;20203;-60
2021/03/01 00:44:38;;;;;;;12.97;7.83;;;-2.80;99.90;;;;;;2097595;28;20262;-60
2021/03/01 00:45:39;;;;;;;12.47;7.30;;;-2.80;99.90;;;;;;2097734;28;20172;-60
2021/03/01 00:46:39;;;;;;;15.57;7.10;;;-2.80;99.90;;;;;;2097698;28;20238;-61
2021/03/01 00:47:40;;;;;;;12.10;6.93;;;-2.80;99.90;;;;;;2097841;28;20501;-60
2021/03/01 00:48:41;;;;;;;13.23;7.40;;;-2.80;99.90;;;;;;2097551;28;20184;-60
2021/03/01 00:49:41;;;;;;;11.93;7.00;;;-2.80;99.90;;;;;;2097724;28;20202;-60
2021/03/01 00:50:42;;;;;;;12.97;6.93;;;-2.80;99.90;;;;;;2097429;28;20176;-59
2021/03/01 00:51:43;;;;;;;11.77;6.50;;;-2.80;99.90;;;;;;2097394;28;20168;-60
2021/03/01 00:52:43;;;;;;;16.13;7.23;;;-2.80;99.90;;;;;;2097729;28;20757;-59
2021/03/01 00:53:44;;;;;;;13.70;7.60;;;-2.80;99.90;;;;;;2097548;28;20359;-60
2021/03/01 00:54:45;;;;;;;12.17;7.03;;;-2.80;99.90;;;;;;2097545;28;20186;-61
2021/03/01 00:55:45;;;;;;;13.37;7.60;;;-2.80;99.90;;;;;;2097770;28;20171;-61
2021/03/01 00:56:46;;;;;;;12.07;7.27;;;-2.80;99.90;;;;;;2097532;28;20557;-60
2021/03/01 00:57:47;;;;;;;11.87;6.90;;;-2.90;99.90;;;;;;2097712;28;20180;-60
2021/03/01 00:58:47;;;;;;;12.93;7.10;;;-2.90;99.90;;;;;;2097536;28;20199;-61
2021/03/01 00:59:48;;;;;;;10.37;7.03;;;-2.90;99.90;;;;;;2097536;28;20281;-59
2021/03/01 01:00:51;;;;;;;11.97;6.17;;;-2.90;99.90;;;;;;2097139;28;20187;-60
2021/03/01 01:01:52;;;;;;;13.38;6.93;;;-2.90;99.90;;;;;;2097720;28;20187;-60
2021/03/01 01:02:52;;;;;;;10.03;6.13;;;-2.90;99.90;;;;;;2097667;28;20187;-60
2021/03/01 01:03:53;;;;;;;12.17;6.80;;;-2.90;99.90;;;;;;2097627;28;20174;-61
2021/03/01 01:04:54;;;;;;;12.07;6.93;;;-2.90;99.90;;;;;;2097457;28;20176;-60
2021/03/01 01:05:54;;;;;;;10.43;6.73;;;-2.90;99.90;;;;;;2097641;28;20202;-60
2021/03/01 01:06:55;;;;;;;11.37;7.00;;;-2.90;99.90;;;;;;2097742;28;20722;-60
2021/03/01 01:07:56;;;;;;;13.83;6.70;;;-2.90;99.90;;;;;;2097695;28;20172;-60
2021/03/01 01:08:56;;;;;;;10.83;7.00;;;-2.90;99.90;;;;;;2097709;28;20233;-60
2021/03/01 01:09:57;;;;;;;12.50;6.90;;;-3.00;99.90;;;;;;2097715;28;20195;-61
2021/03/01 01:10:58;;;;;;;12.13;6.77;;;-3.00;99.90;;;;;;2098237;28;20259;-60
2021/03/01 01:11:58;;;;;;;10.00;6.37;;;-3.00;99.90;;;;;;2098334;28;20304;-60
2021/03/01 01:12:59;;;;;;;9.73;6.57;;;-3.00;99.90;;;;;;2098361;28;20745;-60
2021/03/01 01:14:00;;;;;;;11.00;6.73;;;-3.00;99.90;;;;;;2098579;28;20180;-60
2021/03/01 01:15:07;;;;;;;11.37;6.80;;;-3.00;99.90;;;;;;2098335;28;20175;-60
2021/03/01 01:16:08;;;;;;;14.07;7.38;;;-3.00;99.90;;;;;;2097696;28;20176;-59
2021/03/01 01:17:09;;;;;;;13.10;6.65;;;-3.00;99.90;;;;;;2097586;28;20240;-59
2021/03/01 01:18:10;;;;;;;13.20;7.00;;;-3.00;99.90;;;;;;2097476;28;20187;-60
2021/03/01 01:19:11;;;;;;;12.63;7.30;;;-3.00;99.90;;;;;;2097525;28;20183;-60
2021/03/01 01:20:13;;;;;;;11.70;6.90;;;-3.10;99.90;;;;;;2097504;28;20221;-61
2021/03/01 01:21:13;;;;;;;12.40;6.70;;;-3.10;99.90;;;;;;2087878;28;20254;-60
2021/03/01 01:22:14;;;;;;;13.07;7.63;;;-3.10;99.90;;;;;;2088850;28;20751;-60
2021/03/01 01:23:15;;;;;;;12.57;7.10;;;-3.10;99.90;;;;;;2097482;28;20191;-60
2021/03/01 01:24:16;;;;;;;13.57;7.60;;;-3.10;99.90;;;;;;2088593;28;20212;-60
2021/03/01 01:25:17;;;;;;;15.57;7.37;;;-3.10;99.90;;;;;;2088579;28;20258;-60
2021/03/01 01:26:18;;;;;;;10.73;6.47;;;-3.10;99.90;;;;;;2097275;28;20508;-60
2021/03/01 01:27:18;;;;;;;9.70;7.07;;;-3.10;99.90;;;;;;2097329;28;20237;-60
2021/03/01 01:28:19;;;;;;;11.03;7.00;;;-3.10;99.90;;;;;;2097398;28;20182;-60
2021/03/01 01:29:20;;;;;;;11.25;6.35;;;-3.10;99.90;;;;;;2097531;28;20180;-61
2021/03/01 01:30:24;;;;;;;11.27;6.47;;;-3.20;99.90;;;;;;2097396;28;20224;-59
2021/03/01 01:31:25;;;;;;;12.30;6.68;;;-3.20;99.90;;;;;;2096827;28;20172;-60
2021/03/01 01:32:25;;;;;;;10.73;6.03;;;-3.10;99.90;;;;;;2097080;28;20228;-61
2021/03/01 01:33:26;;;;;;;12.67;6.63;;;-3.10;99.90;;;;;;2097252;28;20216;-61
2021/03/01 01:34:27;;;;;;;11.47;6.67;;;-3.20;99.90;;;;;;2097311;28;20659;-60
2021/03/01 01:35:28;;;;;;;15.27;7.00;;;-3.20;99.90;;;;;;2097400;28;20168;-61
2021/03/01 01:36:28;;;;;;;11.23;6.72;;;-3.20;99.90;;;;;;2088536;28;20188;-61
2021/03/01 01:37:29;;;;;;;11.87;7.33;;;-3.20;99.90;;;;;;2088445;28;20636;-60
2021/03/01 01:38:30;;;;;;;15.10;6.93;;;-3.20;99.90;;;;;;2097323;28;20167;-60
2021/03/01 01:39:30;;;;;;;11.03;6.03;;;-3.20;99.90;;;;;;2097359;28;20239;-61
2021/03/01 01:40:32;;;;;;;11.33;6.50;;;-3.20;99.90;;;;;;2097171;28;20204;-61
2021/03/01 01:41:33;;;;;;;13.93;7.47;;;-3.20;99.90;;;;;;2096722;28;20199;-61
2021/03/01 01:42:35;;;;;;;14.50;7.40;;;-3.20;99.90;;;;;;2097255;28;20203;-59
2021/03/01 01:43:35;;;;;;;11.57;6.68;;;-3.10;99.90;;;;;;2097290;28;20187;-60
2021/03/01 01:44:36;;;;;;;13.73;7.30;;;-3.10;99.90;;;;;;2097515;28;20206;-60
2021/03/01 01:45:37;;;;;;;13.63;6.97;;;-3.10;99.90;;;;;;2097339;28;20188;-61
2021/03/01 01:46:37;;;;;;;14.83;6.93;;;-3.10;99.90;;;;;;2097473;28;20168;-59
2021/03/01 01:47:40;;;;;;;13.63;7.53;;;-3.10;99.90;;;;;;2096879;28;20172;-60
2021/03/01 01:48:41;;;;;;;12.38;6.90;;;-3.10;99.90;;;;;;2097191;28;20209;-59
2021/03/01 01:49:41;;;;;;;11.00;6.80;;;-3.20;99.90;;;;;;2097135;28;20198;-59
2021/03/01 01:50:42;;;;;;;12.53;7.17;;;-3.10;99.90;;;;;;2097292;28;20176;-59
2021/03/01 01:51:43;;;;;;;14.27;8.27;;;-3.10;99.90;;;;;;2096831;28;20171;-59
2021/03/01 01:52:44;;;;;;;14.75;7.25;;;-3.10;99.90;;;;;;2097277;28;20171;-60
2021/03/01 01:53:45;;;;;;;12.83;7.07;;;-3.10;99.90;;;;;;2088256;28;20709;-59
2021/03/01 01:54:46;;;;;;;11.73;7.23;;;-3.20;99.90;;;;;;2088485;28;20547;-60
2021/03/01 01:55:47;;;;;;;12.63;7.33;;;-3.20;99.90;;;;;;2080057;28;20185;-59
2021/03/01 01:56:49;;;;;;;12.63;7.07;;;-3.10;99.90;;;;;;2080237;28;20181;-60
2021/03/01 01:57:50;;;;;;;13.00;6.78;;;-3.10;99.90;;;;;;2097273;28;20200;-59
2021/03/01 01:58:51;;;;;;;12.57;7.03;;;-3.10;99.90;;;;;;2097293;28;20219;-60
2021/03/01 01:59:52;;;;;;;13.15;6.72;;;-3.10;99.90;;;;;;2096932;28;20188;-59
2021/03/01 02:00:52;;;;;;;14.50;7.63;;;-3.10;99.90;;;;;;2087920;28;20256;-60
2021/03/01 02:01:55;;;;;;;14.10;6.97;;;-3.10;99.90;;;;;;2088267;28;20176;-59
2021/03/01 02:03:37;;;;;;;15.00;7.43;;;-3.10;99.90;;;;;;2080089;28;20181;-59
2021/03/01 02:04:42;;;;;;;13.07;6.82;;;-3.10;99.90;;;;;;2094209;28;20170;-59
2021/03/01 02:05:43;;;;;;;12.05;5.93;;;-3.20;99.90;;;;;;2088303;28;20615;-59
2021/03/01 02:07:15;;;;;;;13.83;8.13;;;-3.20;99.90;;;;;;2088533;28;20180;-59
2021/03/01 02:08:45;;;;;;;12.43;6.93;;;-3.20;99.90;;;;;;2094054;28;20191;-60
2021/03/01 02:10:10;;;;;;;11.90;6.40;;;-3.20;99.90;;;;;;2071239;28;20192;-57
2021/03/01 02:11:21;;;;;;;12.30;6.93;;;-3.20;99.90;;;;;;2087705;28;20195;-59
2021/03/01 02:12:51;;;;;;;11.00;5.93;;;-3.30;99.90;;;;;;2089968;28;20180;-59
2021/03/01 02:14:19;;;;;;;14.35;6.00;;;-3.20;99.90;;;;;;2097283;28;20174;-59
2021/03/01 02:15:28;;;;;;;11.93;6.60;;;-3.30;99.90;;;;;;2097331;28;20539;-59
2021/03/01 02:16:35;;;;;;;10.82;6.90;;;-3.30;99.90;;;;;;2097453;28;20171;-58
2021/03/01 02:17:36;;;;;;;11.27;6.38;;;-3.30;99.90;;;;;;2097229;28;20177;-58
2021/03/01 02:18:36;;;;;;;10.03;6.10;;;-3.30;99.90;;;;;;2097109;28;20185;-59
2021/03/01 02:19:38;;;;;;;12.17;6.40;;;-3.30;99.90;;;;;;2097099;28;20210;-59
2021/03/01 02:20:48;;;;;;;11.77;7.18;;;-3.30;99.90;;;;;;2097140;28;20636;-58
2021/03/01 02:21:49;;;;;;;11.57;6.15;;;-3.30;99.90;;;;;;2096916;28;20183;-59
2021/03/01 02:22:50;;;;;;;11.07;6.20;;;-3.30;99.90;;;;;;2097175;28;20255;-59
2021/03/01 02:23:51;;;;;;;10.97;6.50;;;-3.30;99.90;;;;;;2097153;28;20211;-59
2021/03/01 02:24:59;;;;;;;10.95;6.75;;;-3.40;99.90;;;;;;2088328;28;20212;-59
2021/03/01 02:26:15;;;;;;;13.23;7.00;;;-3.40;99.90;;;;;;2080855;28;20631;-59
2021/03/01 02:27:30;;;;;;;12.43;6.63;;;-3.40;99.90;;;;;;2090351;28;20196;-59
2021/03/01 02:28:38;;;;;;;13.32;6.65;;;-3.40;99.90;;;;;;2097284;28;20164;-58
2021/03/01 02:29:40;;;;;;;13.13;6.60;;;-3.40;99.90;;;;;;2097154;28;20160;-58
2021/03/01 02:30:49;;;;;;;13.52;7.35;;;-3.50;99.90;;;;;;2088240;28;20202;-59
2021/03/01 02:31:53;;;;;;;11.93;6.35;;;-3.50;99.90;;;;;;2088090;28;20523;-60
2021/03/01 02:33:08;;;;;;;11.73;6.78;;;-3.50;99.90;;;;;;2080323;28;20363;-60
2021/03/01 02:34:12;;;;;;;10.45;6.47;;;-3.50;99.90;;;;;;2081864;28;20157;-61
2021/03/01 02:35:15;;;;;;;15.30;7.43;;;-3.50;99.90;;;;;;2072495;28;20201;-60
2021/03/01 02:36:24;;;;;;;10.80;6.75;;;-3.50;99.90;;;;;;2080386;28;20173;-60
2021/03/01 02:37:27;;;;;;;11.68;6.47;;;-3.40;99.90;;;;;;2079778;28;20209;-59
2021/03/01 02:38:30;;;;;;;11.55;6.70;;;-3.50;99.90;;;;;;2080151;28;20263;-61
2021/03/01 02:39:35;;;;;;;12.50;7.10;;;-3.50;99.90;;;;;;2071919;28;20559;-59
2021/03/01 02:40:39;;;;;;;12.45;6.70;;;-3.50;99.90;;;;;;2072200;28;20656;-60
2021/03/01 02:41:41;;;;;;;12.18;6.82;;;-3.50;99.90;;;;;;2079759;28;20189;-60
2021/03/01 02:42:43;;;;;;;12.95;7.47;;;-3.50;99.90;;;;;;2096458;28;20176;-60
2021/03/01 02:43:44;;;;;;;13.85;7.53;;;-3.50;99.90;;;;;;2088081;28;20184;-60
2021/03/01 02:44:46;;;;;;;10.93;6.85;;;-3.60;99.90;;;;;;2080172;28;20200;-59
2021/03/01 02:45:47;;;;;;;10.63;6.13;;;-3.60;99.90;;;;;;2088043;28;20193;-60
2021/03/01 02:46:50;;;;;;;11.77;6.53;;;-3.60;99.90;;;;;;2096685;28;20211;-60
2021/03/01 02:47:52;;;;;;;11.73;7.18;;;-3.60;99.90;;;;;;2088431;28;20660;-61
2021/03/01 02:48:53;;;;;;;10.32;6.30;;;-3.60;99.90;;;;;;2080248;28;20523;-60
2021/03/01 02:49:57;;;;;;;10.75;6.55;;;-3.60;99.90;;;;;;2088170;28;20232;-60
2021/03/01 02:50:59;;;;;;;14.77;7.35;;;-3.50;99.90;;;;;;2071954;28;20181;-60
2021/03/01 02:52:00;;;;;;;12.13;6.43;;;-3.60;99.90;;;;;;2080146;28;20189;-60
2021/03/01 02:53:02;;;;;;;11.32;6.90;;;-3.60;99.90;;;;;;2072385;28;20186;-60
2021/03/01 02:54:04;;;;;;;11.15;6.65;;;-3.60;99.90;;;;;;2080152;28;20510;-60
2021/03/01 02:55:08;;;;;;;12.88;6.53;;;-3.60;99.90;;;;;;2089299;28;20183;-61
2021/03/01 02:56:09;;;;;;;10.73;6.25;;;-3.70;99.90;;;;;;2080149;28;20199;-61
2021/03/01 02:57:13;;;;;;;12.52;6.78;;;-3.70;99.90;;;;;;2080347;28;20236;-60
2021/03/01 02:58:17;;;;;;;12.20;6.70;;;-3.70;99.90;;;;;;2080689;28;20196;-60
2021/03/01 02:59:22;;;;;;;11.38;6.20;;;-3.60;99.90;;;;;;2088931;28;20203;-60
2021/03/01 03:00:24;;;;;;;14.93;6.95;;;-3.60;99.90;;;;;;2081782;28;20212;-60
2021/03/01 03:01:26;;;;;;;11.80;6.88;;;-3.70;99.90;;;;;;2081441;28;20181;-61
2021/03/01 03:02:29;;;;;;;10.85;6.57;;;-3.70;99.90;;;;;;2090276;28;20601;-60
2021/03/01 03:03:30;;;;;;;11.75;6.63;;;-3.70;99.90;;;;;;2073879;28;20293;-59
2021/03/01 03:04:32;;;;;;;11.40;6.18;;;-3.60;99.90;;;;;;2081743;28;20268;-60
2021/03/01 03:05:34;;;;;;;11.27;6.10;;;-3.60;99.90;;;;;;2098305;28;20599;-60
2021/03/01 03:06:37;;;;;;;11.70;6.68;;;-3.60;99.90;;;;;;2089863;28;20216;-59
2021/03/01 03:07:42;;;;;;;10.40;6.35;;;-3.60;99.90;;;;;;2082348;28;20220;-60
2021/03/01 03:08:44;;;;;;;11.90;6.90;;;-3.60;99.90;;;;;;2089606;28;20749;-60
2021/03/01 03:09:46;;;;;;;12.43;7.07;;;-3.60;99.90;;;;;;2073869;28;20216;-60
2021/03/01 03:10:50;;;;;;;14.45;7.45;;;-3.60;99.90;;;;;;2081422;28;20596;-60
2021/03/01 03:11:54;;;;;;;12.45;6.95;;;-3.60;99.90;;;;;;2090282;28;20263;-59
2021/03/01 03:12:56;;;;;;;15.30;8.32;;;-3.60;99.90;;;;;;2086409;28;20192;-59
2021/03/01 03:13:58;;;;;;;13.48;7.07;;;-3.60;99.90;;;;;;2097952;28;20186;-59
2021/03/01 03:15:02;;;;;;;16.60;7.68;;;-3.60;99.90;;;;;;2098748;28;20193;-59
2021/03/01 03:16:05;;;;;;;11.45;6.60;;;-3.60;99.90;;;;;;2098632;28;20612;-60
2021/03/01 03:17:06;;;;;;;12.65;6.80;;;-3.70;99.90;;;;;;2098113;28;20206;-59
2021/03/01 03:18:12;;;;;;;10.63;6.47;;;-3.60;99.90;;;;;;2090210;28;20226;-59
2021/03/01 03:19:12;;;;;;;12.02;7.10;;;-3.60;99.90;;;;;;2090516;28;20586;-59
2021/03/01 03:20:14;;;;;;;11.07;6.63;;;-3.60;99.90;;;;;;2098222;28;20207;-60
2021/03/01 03:21:14;;;;;;;16.38;6.35;;;-3.60;99.90;;;;;;2098157;28;20271;-59
2021/03/01 03:22:15;;;;;;;12.47;6.67;;;-3.60;99.90;;;;;;2098173;28;20241;-62
2021/03/01 03:23:17;;;;;;;12.00;6.70;;;-3.60;99.90;;;;;;2098024;28;20183;-59
2021/03/01 03:24:18;;;;;;;13.15;6.43;;;-3.60;99.90;;;;;;2098836;28;20179;-59
2021/03/01 03:25:19;;;;;;;12.43;6.70;;;-3.60;99.90;;;;;;2098915;28;20654;-60
2021/03/01 03:26:19;;;;;;;13.73;7.25;;;-3.60;99.90;;;;;;2098499;28;20705;-60
2021/03/01 03:27:20;;;;;;;10.90;6.23;;;-3.60;99.90;;;;;;2098797;28;20187;-60
2021/03/01 03:28:21;;;;;;;14.60;7.30;;;-3.60;99.90;;;;;;2098904;28;20194;-58
2021/03/01 03:29:22;;;;;;;12.03;6.70;;;-3.60;99.90;;;;;;2098823;28;20267;-58
2021/03/01 03:30:24;;;;;;;12.57;6.80;;;-3.60;99.90;;;;;;2098886;28;20442;-59
2021/03/01 03:31:25;;;;;;;11.85;6.50;;;-3.60;99.90;;;;;;2097972;28;20224;-60
2021/03/01 03:32:27;;;;;;;14.10;6.80;;;-3.60;99.90;;;;;;2098910;28;20245;-59
2021/03/01 03:33:28;;;;;;;10.30;5.97;;;-3.60;99.90;;;;;;2098453;28;20663;-59
2021/03/01 03:34:29;;;;;;;12.53;6.77;;;-3.60;99.90;;;;;;2097902;28;20176;-59
2021/03/01 03:35:30;;;;;;;11.10;6.13;;;-3.60;99.90;;;;;;2097775;28;20171;-60
2021/03/01 03:36:43;;;;;;;16.00;7.00;;;-3.60;99.90;;;;;;2098269;28;20222;-59
2021/03/01 03:37:58;;;;;;;14.25;6.90;;;-3.60;99.90;;;;;;2097956;28;20184;-59
2021/03/01 03:39:07;;;;;;;11.38;6.45;;;-3.60;99.90;;;;;;2098692;28;20201;-59
2021/03/01 03:40:21;;;;;;;12.10;5.78;;;-3.60;99.90;;;;;;2097744;28;20277;-59
2021/03/01 03:41:23;;;;;;;11.18;6.05;;;-3.60;99.90;;;;;;2091075;28;20275;-59
2021/03/01 03:42:27;;;;;;;10.85;5.93;;;-3.60;99.90;;;;;;2089373;28;20639;-58
2021/03/01 03:43:29;;;;;;;10.25;6.15;;;-3.60;99.90;;;;;;2090103;28;20284;-60
2021/03/01 03:44:32;;;;;;;11.35;5.93;;;-3.60;99.90;;;;;;2098014;28;20180;-60
2021/03/01 03:45:35;;;;;;;14.05;7.68;;;-3.60;99.90;;;;;;2089847;28;20183;-60
2021/03/01 03:46:38;;;;;;;13.63;6.47;;;-3.50;99.90;;;;;;2089872;28;20236;-58
2021/03/01 03:47:44;;;;;;;13.75;7.40;;;-3.60;99.90;;;;;;2089777;28;20652;-60
2021/03/01 03:48:50;;;;;;;11.10;6.15;;;-3.60;99.90;;;;;;2090404;28;20177;-59
2021/03/01 03:49:56;;;;;;;10.73;6.35;;;-3.60;99.90;;;;;;2097586;28;20164;-59
2021/03/01 03:51:04;;;;;;;11.43;6.43;;;-3.60;99.90;;;;;;2089615;28;20175;-60
2021/03/01 03:52:06;;;;;;;14.25;7.03;;;-3.60;99.90;;;;;;2097873;28;20598;-59
2021/03/01 03:53:11;;;;;;;12.00;6.20;;;-3.60;99.90;;;;;;2097853;28;20172;-60
2021/03/01 03:54:22;;;;;;;12.15;6.18;;;-3.60;99.90;;;;;;2090199;28;20366;-60
2021/03/01 03:55:25;;;;;;;10.90;6.03;;;-3.70;99.90;;;;;;2098131;28;20180;-59
2021/03/01 03:56:29;;;;;;;11.75;6.20;;;-3.70;99.90;;;;;;2097679;28;20176;-60
2021/03/01 03:57:34;;;;;;;12.15;6.70;;;-3.70;99.90;;;;;;2097923;28;20229;-60
2021/03/01 03:58:44;;;;;;;10.85;6.32;;;-3.70;99.90;;;;;;2097491;28;20174;-60
2021/03/01 03:59:47;;;;;;;11.68;6.15;;;-3.70;99.90;;;;;;2090802;28;20172;-60
2021/03/01 04:00:51;;;;;;;12.23;6.18;;;-3.70;99.90;;;;;;2089514;28;20181;-60
2021/03/01 04:01:54;;;;;;;12.05;6.63;;;-3.80;99.90;;;;;;2089829;28;20176;-59
2021/03/01 04:02:58;;;;;;;11.88;6.05;;;-3.80;99.90;;;;;;2089756;28;20192;-60
2021/03/01 04:04:06;;;;;;;11.85;6.68;;;-3.80;99.90;;;;;;2097603;28;20210;-59
2021/03/01 04:05:09;;;;;;;13.88;6.93;;;-3.80;99.90;;;;;;2097840;28;20183;-59
2021/03/01 04:06:14;;;;;;;10.85;5.85;;;-3.80;99.90;;;;;;2097606;28;20222;-59
2021/03/01 04:07:17;;;;;;;10.80;6.10;;;-3.80;99.90;;;;;;2089955;28;20185;-59
2021/03/01 04:08:19;;;;;;;12.25;6.95;;;-3.80;99.90;;;;;;2097721;28;20913;-59
2021/03/01 04:09:25;;;;;;;12.57;7.07;;;-3.90;99.90;;;;;;2098262;28;20207;-59
2021/03/01 04:10:31;;;;;;;13.60;6.63;;;-3.90;99.90;;;;;;2097182;28;20673;-59
2021/03/01 04:11:33;;;;;;;13.85;7.05;;;-3.90;99.90;;;;;;2089536;28;20232;-60
2021/03/01 04:12:38;;;;;;;13.63;6.38;;;-3.90;99.90;;;;;;2089863;28;20181;-59
2021/03/01 04:13:43;;;;;;;15.13;6.95;;;-3.90;99.90;;;;;;2090039;28;20233;-60
2021/03/01 04:14:49;;;;;;;13.45;7.30;;;-3.90;99.90;;;;;;2100305;28;20179;-60
2021/03/01 04:15:50;;;;;;;12.50;6.95;;;-3.90;99.90;;;;;;2104438;28;20333;-59
2021/03/01 04:16:57;;;;;;;14.52;7.32;;;-3.90;99.90;;;;;;2103986;28;20179;-60
2021/03/01 04:17:59;;;;;;;12.65;7.00;;;-3.90;99.90;;;;;;2103138;28;20283;-59
2021/03/01 04:19:05;;;;;;;17.92;7.63;;;-3.90;99.90;;;;;;2095339;28;20582;-58
2021/03/01 04:20:10;;;;;;;13.63;7.28;;;-3.90;99.90;;;;;;2090472;28;20224;-59
2021/03/01 04:21:12;;;;;;;16.13;8.10;;;-3.90;99.90;;;;;;2089377;28;20208;-59
2021/03/01 04:22:14;;;;;;;15.23;7.10;;;-3.90;99.90;;;;;;2089805;28;20740;-59
2021/03/01 04:23:16;;;;;;;11.35;7.07;;;-3.90;99.90;;;;;;2089665;28;20172;-60
2021/03/01 04:24:18;;;;;;;12.07;6.80;;;-3.90;99.90;;;;;;2089675;28;20176;-59
2021/03/01 04:25:20;;;;;;;10.85;6.10;;;-3.90;99.90;;;;;;2097307;28;20626;-59
2021/03/01 04:26:21;;;;;;;12.57;6.65;;;-3.90;99.90;;;;;;2097126;28;20212;-60
2021/03/01 04:27:22;;;;;;;10.85;6.05;;;-3.90;99.90;;;;;;2089174;28;20282;-59
2021/03/01 04:28:24;;;;;;;13.10;6.65;;;-3.90;99.90;;;;;;2089131;28;20180;-59
2021/03/01 04:29:26;;;;;;;14.07;7.32;;;-3.90;99.90;;;;;;2089185;28;20173;-58
2021/03/01 04:30:27;;;;;;;14.45;7.15;;;-3.90;99.90;;;;;;2082981;28;20279;-59
2021/03/01 04:31:29;;;;;;;15.65;7.47;;;-3.90;99.90;;;;;;2080234;28;20201;-59
2021/03/01 04:32:30;;;;;;;12.68;7.00;;;-3.90;99.90;;;;;;2089119;28;20172;-59
2021/03/01 04:33:33;;;;;;;12.80;7.13;;;-3.90;99.90;;;;;;2089751;28;20172;-60
2021/03/01 04:34:35;;;;;;;17.48;7.22;;;-4.00;99.90;;;;;;2089699;28;20169;-59
2021/03/01 04:35:38;;;;;;;14.90;6.85;;;-4.00;99.90;;;;;;2089023;28;20173;-59
2021/03/01 04:36:40;;;;;;;11.90;6.88;;;-4.00;99.90;;;;;;2089031;28;20242;-59
2021/03/01 04:37:42;;;;;;;12.90;7.05;;;-4.00;99.90;;;;;;2089108;28;20283;-58
2021/03/01 04:38:42;;;;;;;15.73;7.50;;;-4.00;99.90;;;;;;2080814;28;20204;-59
2021/03/01 04:39:43;;;;;;;12.87;6.53;;;-4.00;99.90;;;;;;2080538;28;20640;-59
2021/03/01 04:40:44;;;;;;;11.20;6.73;;;-4.00;99.90;;;;;;2088793;28;20376;-59
2021/03/01 04:41:47;;;;;;;12.53;6.90;;;-4.00;99.90;;;;;;2088976;28;20275;-59
2021/03/01 04:42:48;;;;;;;12.45;7.00;;;-4.00;99.90;;;;;;2088907;28;20176;-59
2021/03/01 04:43:50;;;;;;;12.80;8.18;;;-4.00;99.90;;;;;;2088955;28;20564;-60
2021/03/01 04:44:52;;;;;;;13.15;6.65;;;-4.00;99.90;;;;;;2080521;28;20722;-59
2021/03/01 04:45:54;;;;;;;13.18;6.88;;;-4.00;99.90;;;;;;2080742;28;20193;-59
2021/03/01 04:46:56;;;;;;;11.60;6.43;;;-4.10;99.90;;;;;;2089557;28;20180;-60
2021/03/01 04:47:57;;;;;;;14.77;7.50;;;-4.00;99.90;;;;;;2088656;28;20180;-58
2021/03/01 04:49:02;;;;;;;11.17;6.40;;;-4.10;99.90;;;;;;2088852;28;20181;-59
2021/03/01 04:50:04;;;;;;;12.88;7.18;;;-4.10;99.90;;;;;;2089413;28;20195;-58
2021/03/01 04:51:05;;;;;;;12.82;7.43;;;-4.00;99.90;;;;;;2088144;28;20702;-59
2021/03/01 04:52:06;;;;;;;13.40;7.20;;;-4.10;99.90;;;;;;2088774;28;20192;-59
2021/03/01 04:53:07;;;;;;;11.20;6.80;;;-4.10;99.90;;;;;;2088655;28;20185;-59
2021/03/01 04:54:10;;;;;;;13.77;7.18;;;-4.10;99.90;;;;;;2088850;28;20188;-59
2021/03/01 04:55:12;;;;;;;15.32;8.75;;;-4.10;99.90;;;;;;2088816;28;20209;-60
2021/03/01 04:56:12;;;;;;;14.10;7.53;;;-4.10;99.90;;;;;;2080413;28;20196;-59
2021/03/01 04:57:15;;;;;;;16.40;9.57;;;-4.10;99.90;;;;;;2080494;28;20180;-59
2021/03/01 04:58:17;;;;;;;12.30;8.18;;;-4.10;99.90;;;;;;2089286;28;20755;-60
2021/03/01 04:59:19;;;;;;;16.58;9.20;;;-4.10;99.90;;;;;;2088755;28;20181;-59
2021/03/01 05:00:22;;;;;;;16.52;9.45;;;-4.10;99.90;;;;;;2088950;28;20271;-59
2021/03/01 05:01:23;;;;;;;14.07;8.75;;;-4.20;99.90;;;;;;2096091;28;20191;-59
2021/03/01 05:02:24;;;;;;;15.00;8.55;;;-4.10;99.90;;;;;;2088760;28;20187;-59
2021/03/01 05:03:25;;;;;;;13.00;8.82;;;-4.10;99.90;;;;;;2088568;28;20184;-60
2021/03/01 05:04:28;;;;;;;14.13;8.23;;;-4.10;99.90;;;;;;2080633;28;20177;-59
2021/03/01 05:05:29;;;;;;;13.93;8.43;;;-4.10;99.90;;;;;;2088967;28;20651;-59
2021/03/01 05:06:30;;;;;;;17.10;8.77;;;-4.10;99.90;;;;;;2097124;28;20215;-60
2021/03/01 05:07:31;;;;;;;13.73;8.30;;;-4.10;99.90;;;;;;2088763;28;20231;-59
2021/03/01 05:08:34;;;;;;;14.85;8.10;;;-4.10;99.90;;;;;;2088683;28;20180;-60
2021/03/01 05:09:38;;;;;;;16.08;8.70;;;-4.10;99.90;;;;;;2089186;28;20273;-58
2021/03/01 05:10:39;;;;;;;15.10;8.45;;;-4.10;99.90;;;;;;2089441;28;20209;-60
2021/03/01 05:11:40;;;;;;;15.82;9.30;;;-4.10;99.90;;;;;;2088751;28;20211;-60
2021/03/01 05:12:41;;;;;;;13.87;8.60;;;-4.10;99.90;;;;;;2089270;28;20574;-60
2021/03/01 05:13:42;;;;;;;14.10;8.30;;;-4.10;99.90;;;;;;2089321;28;20183;-60
2021/03/01 05:14:42;;;;;;;15.33;9.37;;;-4.00;99.90;;;;;;2089256;28;20666;-60
2021/03/01 05:15:43;;;;;;;14.13;9.07;;;-4.00;99.90;;;;;;2089381;28;20176;-60
2021/03/01 05:16:44;;;;;;;13.80;8.77;;;-4.00;99.90;;;;;;2089255;28;20228;-60
2021/03/01 05:17:45;;;;;;;12.10;7.30;;;-4.10;99.90;;;;;;2088635;28;20220;-60
2021/03/01 05:18:46;;;;;;;12.68;7.60;;;-4.10;99.90;;;;;;2088590;28;20218;-60
2021/03/01 05:19:47;;;;;;;12.40;7.65;;;-4.10;99.90;;;;;;2088987;28;20184;-60
2021/03/01 05:20:48;;;;;;;13.63;7.57;;;-4.10;99.90;;;;;;2089103;28;20548;-60
2021/03/01 05:21:49;;;;;;;14.03;8.03;;;-4.10;99.90;;;;;;2088721;28;20196;-60
2021/03/01 05:22:49;;;;;;;14.40;7.50;;;-4.10;99.90;;;;;;2088771;28;20313;-60
2021/03/01 05:23:51;;;;;;;13.40;6.50;;;-4.10;99.90;;;;;;2089190;28;20173;-60